createdAt,value
2022-11-24T01:57:09.780Z,6.71
2022-11-24T01:58:10.797Z,6.69
2022-11-24T01:59:10.662Z,6.71
2022-11-24T02:00:10.673Z,6.76
2022-11-24T02:01:10.710Z,6.73
2022-11-24T02:02:10.704Z,6.77
2022-11-24T02:03:10.620Z,6.79
2022-11-24T02:04:10.656Z,6.80
2022-11-24T02:05:10.621Z,6.80
2022-11-24T02:06:10.612Z,6.77
2022-11-24T02:07:10.620Z,6.79
2022-11-24T02:08:10.638Z,6.80
2022-11-24T02:09:10.552Z,6.79
2022-11-24T02:10:10.598Z,6.76
2022-11-24T02:11:10.547Z,6.77
2022-11-24T02:12:10.613Z,6.76
2022-11-24T02:13:10.591Z,6.76
2022-11-24T02:14:10.607Z,6.76
2022-11-24T02:15:10.516Z,6.73
2022-11-24T02:16:10.807Z,6.72
2022-11-24T02:17:10.461Z,6.76
2022-11-24T02:18:10.497Z,6.73
2022-11-24T02:19:10.431Z,6.76
2022-11-24T02:20:11.145Z,6.77
2022-11-24T02:21:10.445Z,6.80
2022-11-24T02:22:10.480Z,6.81
2022-11-24T02:23:10.383Z,6.80
2022-11-24T02:24:10.446Z,6.83
2022-11-24T02:25:10.379Z,6.83
2022-11-24T02:26:10.377Z,6.83
2022-11-24T02:27:10.345Z,6.84
2022-11-24T02:28:10.441Z,6.86
2022-11-24T02:29:10.330Z,6.81
2022-11-24T02:30:10.317Z,6.81
2022-11-24T02:31:10.386Z,6.80
2022-11-24T02:32:10.329Z,6.80
2022-11-24T02:33:10.288Z,6.77
2022-11-24T02:34:10.295Z,6.76
2022-11-24T02:35:10.263Z,6.76
2022-11-24T02:36:10.292Z,6.72
2022-11-24T02:37:10.294Z,6.77
2022-11-24T02:38:10.250Z,6.77
2022-11-24T02:39:10.217Z,6.83
2022-11-24T02:40:10.255Z,6.87
2022-11-24T02:41:10.194Z,6.90
2022-11-24T02:42:10.304Z,6.94
2022-11-24T02:43:10.199Z,6.94
2022-11-24T02:44:10.187Z,6.94
2022-11-24T02:45:10.160Z,6.94
2022-11-24T02:46:10.201Z,6.94
2022-11-24T02:47:10.127Z,6.98
2022-11-24T02:48:10.136Z,7.01
2022-11-24T02:49:10.154Z,7.01
2022-11-24T02:50:10.116Z,7.05
2022-11-24T02:51:10.104Z,7.02
2022-11-24T02:52:10.107Z,7.02
2022-11-24T02:53:10.076Z,7.02
2022-11-24T02:54:10.071Z,7.07
2022-11-24T02:55:10.074Z,7.07
2022-11-24T02:56:10.056Z,7.09
2022-11-24T02:57:10.035Z,7.12
2022-11-24T02:58:10.040Z,7.12
2022-11-24T02:59:10.006Z,7.09
2022-11-24T03:00:10.005Z,7.13
2022-11-24T03:01:10.095Z,7.09
2022-11-24T03:02:09.989Z,7.09
2022-11-24T03:03:10.017Z,7.09
2022-11-24T03:04:09.990Z,7.09
2022-11-24T03:05:09.964Z,7.09
2022-11-24T03:06:09.950Z,7.08
2022-11-24T03:07:10.029Z,7.12
2022-11-24T03:08:09.936Z,7.08
2022-11-24T03:09:09.909Z,7.04
2022-11-24T03:10:09.922Z,7.02
2022-11-24T03:11:09.913Z,6.98
2022-11-24T03:12:09.867Z,6.97
2022-11-24T03:13:09.895Z,6.97
2022-11-24T03:14:09.866Z,6.95
2022-11-24T03:15:09.859Z,6.95
2022-11-24T03:16:09.946Z,6.97
2022-11-24T03:17:09.838Z,6.95
2022-11-24T03:18:09.824Z,6.91
2022-11-24T03:19:09.840Z,6.89
2022-11-24T03:20:09.792Z,6.84
2022-11-24T03:21:09.792Z,6.83
2022-11-24T03:22:09.783Z,6.80
2022-11-24T03:23:09.788Z,6.77
2022-11-24T03:24:09.760Z,6.72
2022-11-24T03:25:09.755Z,6.68
2022-11-24T03:26:09.741Z,6.71
2022-11-24T03:27:09.733Z,6.69
2022-11-24T03:28:09.719Z,6.73
2022-11-24T03:29:09.706Z,6.73
2022-11-24T03:30:09.693Z,6.73
2022-11-24T03:31:09.794Z,6.71
2022-11-24T03:32:09.665Z,6.71
2022-11-24T03:33:09.690Z,6.73
2022-11-24T03:34:09.699Z,6.76
2022-11-24T03:35:09.663Z,6.79
2022-11-24T03:36:09.622Z,6.80
2022-11-24T03:37:09.654Z,6.77
2022-11-24T03:38:09.619Z,6.76
2022-11-24T03:39:09.615Z,6.79
2022-11-24T03:40:09.587Z,6.76
2022-11-24T03:41:09.576Z,6.77
2022-11-24T03:42:09.582Z,6.76
2022-11-24T03:43:09.597Z,6.76
2022-11-24T03:44:09.493Z,6.79
2022-11-24T03:45:38.197Z,6.79
2022-11-24T03:46:09.551Z,6.80
2022-11-24T03:47:09.512Z,6.83
2022-11-24T03:48:09.496Z,6.84
2022-11-24T03:49:09.486Z,6.86
2022-11-24T03:50:09.476Z,6.86
2022-11-24T03:51:09.494Z,6.86
2022-11-24T03:52:09.452Z,6.84
2022-11-24T03:53:09.448Z,6.83
2022-11-24T03:54:09.433Z,6.90
2022-11-24T03:55:09.428Z,6.90
2022-11-24T03:56:09.432Z,6.91
2022-11-24T03:57:09.403Z,6.90
2022-11-24T03:58:09.394Z,6.90
2022-11-24T03:59:09.396Z,6.90
2022-11-24T04:00:09.363Z,6.87
2022-11-24T04:01:09.377Z,6.89
2022-11-24T04:02:09.418Z,6.90
2022-11-24T04:03:09.419Z,6.86
2022-11-24T04:04:09.322Z,6.87
2022-11-24T04:05:09.353Z,6.87
2022-11-24T04:06:09.330Z,6.87
2022-11-24T04:07:09.363Z,6.90
2022-11-24T04:08:09.291Z,6.90
2022-11-24T04:09:09.283Z,6.91
2022-11-24T04:10:09.263Z,6.90
2022-11-24T04:11:09.270Z,6.91
2022-11-24T04:12:09.257Z,6.94
2022-11-24T04:13:09.263Z,6.89
2022-11-24T04:14:13.343Z,6.89
2022-11-24T04:15:09.213Z,6.87
2022-11-24T04:16:09.353Z,6.89
2022-11-24T04:17:09.192Z,6.86
2022-11-24T04:18:09.218Z,6.86
2022-11-24T04:19:09.194Z,6.86
2022-11-24T04:20:09.156Z,6.87
2022-11-24T04:21:09.179Z,6.87
2022-11-24T04:22:09.137Z,6.89
2022-11-24T04:23:09.145Z,6.87
2022-11-24T04:24:09.131Z,6.87
2022-11-24T04:25:09.113Z,6.86
2022-11-24T04:26:09.102Z,6.83
2022-11-24T04:27:09.101Z,6.81
2022-11-24T04:28:09.069Z,6.83
2022-11-24T04:29:09.083Z,6.83
2022-11-24T04:30:09.059Z,6.80
2022-11-24T04:31:09.159Z,6.76
2022-11-24T04:32:09.035Z,6.79
2022-11-24T04:33:09.045Z,6.79
2022-11-24T04:34:09.036Z,6.77
2022-11-24T04:35:09.033Z,6.76
2022-11-24T04:36:08.982Z,6.72
2022-11-24T04:37:08.993Z,6.72
2022-11-24T04:38:08.977Z,6.72
2022-11-24T04:39:25.984Z,6.73
2022-11-24T04:40:08.979Z,6.72
2022-11-24T04:41:08.939Z,6.73
2022-11-24T04:42:08.943Z,6.72
2022-11-24T04:43:08.933Z,6.71
2022-11-24T04:44:08.914Z,6.71
2022-11-24T04:45:08.916Z,6.68
2022-11-24T04:46:08.920Z,6.69
2022-11-24T04:47:08.883Z,6.71
2022-11-24T04:48:08.868Z,6.69
2022-11-24T04:49:08.859Z,6.68
2022-11-24T04:50:08.847Z,6.66
2022-11-24T04:51:08.947Z,6.66
2022-11-24T04:52:08.818Z,6.66
2022-11-24T04:53:08.824Z,6.68
2022-11-24T04:54:08.808Z,6.69
2022-11-24T04:55:08.795Z,6.69
2022-11-24T04:56:08.784Z,6.66
2022-11-24T04:57:08.788Z,6.71
2022-11-24T04:58:08.765Z,6.71
2022-11-24T04:59:08.893Z,6.72
2022-11-24T05:00:08.740Z,6.77
2022-11-24T05:01:08.778Z,6.80
2022-11-24T05:02:08.843Z,6.83
2022-11-24T05:03:08.733Z,6.84
2022-11-24T05:04:08.786Z,6.91
2022-11-24T05:05:08.692Z,6.97
2022-11-24T05:06:08.680Z,6.99
2022-11-24T05:07:12.309Z,6.99
2022-11-24T05:08:08.669Z,7.01
2022-11-24T05:09:08.650Z,7.02
2022-11-24T05:10:08.641Z,7.05
2022-11-24T05:11:08.645Z,7.01
2022-11-24T05:12:08.619Z,7.05
2022-11-24T05:13:08.629Z,7.08
2022-11-24T05:14:08.593Z,7.12
2022-11-24T05:15:08.586Z,7.13
2022-11-24T05:16:08.645Z,7.17
2022-11-24T05:17:08.567Z,7.17
2022-11-24T05:18:08.591Z,7.22
2022-11-24T05:19:08.555Z,7.20
2022-11-24T05:20:08.527Z,7.24
2022-11-24T05:21:08.557Z,7.24
2022-11-24T05:22:08.514Z,7.27
2022-11-24T05:23:08.507Z,7.29
2022-11-24T05:24:08.504Z,7.31
2022-11-24T05:25:08.490Z,7.32
2022-11-24T05:26:08.477Z,7.34
2022-11-24T05:27:08.468Z,7.34
2022-11-24T05:28:08.434Z,7.35
2022-11-24T05:29:08.473Z,7.38
2022-11-24T05:30:08.424Z,7.40
2022-11-24T05:31:08.462Z,7.41
2022-11-24T05:32:08.401Z,7.41
2022-11-24T05:33:08.395Z,7.42
2022-11-24T05:34:08.385Z,7.42
2022-11-24T05:35:08.394Z,7.41
2022-11-24T05:36:08.364Z,7.42
2022-11-24T05:37:08.359Z,7.44
2022-11-24T05:38:08.347Z,7.45
2022-11-24T05:39:08.370Z,7.45
2022-11-24T05:40:08.320Z,7.44
2022-11-24T05:41:08.331Z,7.44
2022-11-24T05:42:08.304Z,7.47
2022-11-24T05:43:08.299Z,7.47
2022-11-24T05:44:08.285Z,7.47
2022-11-24T05:45:08.289Z,7.45
2022-11-24T05:46:08.255Z,7.45
2022-11-24T05:47:08.345Z,7.40
2022-11-24T05:48:08.237Z,7.40
2022-11-24T05:49:08.263Z,7.35
2022-11-24T05:50:08.363Z,7.34
2022-11-24T05:51:09.510Z,7.35
2022-11-24T05:52:08.205Z,7.37
2022-11-24T05:53:08.223Z,7.34
2022-11-24T05:54:08.684Z,7.34
2022-11-24T05:55:08.289Z,7.37
2022-11-24T05:56:08.202Z,7.38
2022-11-24T05:57:08.172Z,7.38
2022-11-24T05:58:08.182Z,7.40
2022-11-24T05:59:10.016Z,7.41
2022-11-24T06:00:08.192Z,7.41
2022-11-24T06:01:08.120Z,7.40
2022-11-24T06:02:08.251Z,7.40
2022-11-24T06:03:08.252Z,7.41
2022-11-24T06:04:08.074Z,7.41
2022-11-24T06:05:08.265Z,7.37
2022-11-24T06:06:08.070Z,7.34
2022-11-24T06:07:08.105Z,7.34
2022-11-24T06:08:08.017Z,7.34
2022-11-24T06:09:08.026Z,7.32
2022-11-24T06:10:08.005Z,7.35
2022-11-24T06:11:08.025Z,7.32
2022-11-24T06:12:08.003Z,7.29
2022-11-24T06:13:08.054Z,7.32
2022-11-24T06:14:11.068Z,7.32
2022-11-24T06:15:08.043Z,7.34
2022-11-24T06:16:08.060Z,7.32
2022-11-24T06:17:07.954Z,7.32
2022-11-24T06:18:07.918Z,7.32
2022-11-24T06:19:07.928Z,7.35
2022-11-24T06:20:07.922Z,7.35
2022-11-24T06:21:12.060Z,7.37
2022-11-24T06:22:07.895Z,7.38
2022-11-24T06:23:07.888Z,7.37
2022-11-24T06:24:07.852Z,7.37
2022-11-24T06:25:07.882Z,7.40
2022-11-24T06:26:07.850Z,7.40
2022-11-24T06:27:07.894Z,7.41
2022-11-24T06:28:07.809Z,7.41
2022-11-24T06:29:07.849Z,7.38
2022-11-24T06:30:07.796Z,7.41
2022-11-24T06:31:07.927Z,7.42
2022-11-24T06:32:07.910Z,7.44
2022-11-24T06:33:07.764Z,7.42
2022-11-24T06:34:07.840Z,7.44
2022-11-24T06:35:07.777Z,7.42
2022-11-24T06:36:07.761Z,7.44
2022-11-24T06:37:07.736Z,7.44
2022-11-24T06:38:07.732Z,7.47
2022-11-24T06:39:07.708Z,7.47
2022-11-24T06:40:07.718Z,7.49
2022-11-24T06:41:07.702Z,7.47
2022-11-24T06:42:07.710Z,7.49
2022-11-24T06:43:07.641Z,7.49
2022-11-24T06:44:07.600Z,7.50
2022-11-24T06:45:09.063Z,7.50
2022-11-24T06:46:07.668Z,7.52
2022-11-24T06:47:07.585Z,7.52
2022-11-24T06:48:07.712Z,7.53
2022-11-24T06:49:07.643Z,7.52
2022-11-24T06:50:07.551Z,7.52
2022-11-24T06:51:07.572Z,7.56
2022-11-24T06:52:07.538Z,7.56
2022-11-24T06:53:07.526Z,7.56
2022-11-24T06:54:07.506Z,7.56
2022-11-24T06:55:07.494Z,7.58
2022-11-24T06:56:12.164Z,7.58
2022-11-24T06:57:07.507Z,7.58
2022-11-24T06:58:07.484Z,7.58
2022-11-24T06:59:07.453Z,7.56
2022-11-24T07:00:07.434Z,7.56
2022-11-24T07:01:07.487Z,7.58
2022-11-24T07:02:07.400Z,7.58
2022-11-24T07:03:07.456Z,7.56
2022-11-24T07:04:07.380Z,7.56
2022-11-24T07:05:07.379Z,7.56
2022-11-24T07:06:07.382Z,7.56
2022-11-24T07:07:07.443Z,7.55
2022-11-24T07:08:07.351Z,7.58
2022-11-24T07:09:07.342Z,7.56
2022-11-24T07:10:07.365Z,7.56
2022-11-24T07:11:07.336Z,7.56
2022-11-24T07:12:07.321Z,7.53
2022-11-24T07:13:07.328Z,7.53
2022-11-24T07:14:07.296Z,7.52
2022-11-24T07:15:07.293Z,7.50
2022-11-24T07:16:07.331Z,7.52
2022-11-24T07:17:07.258Z,7.53
2022-11-24T07:18:07.253Z,7.50
2022-11-24T07:19:07.235Z,7.52
2022-11-24T07:20:07.230Z,7.53
2022-11-24T07:21:07.221Z,7.52
2022-11-24T07:22:07.415Z,7.53
2022-11-24T07:23:07.196Z,7.53
2022-11-24T07:24:07.197Z,7.52
2022-11-24T07:25:07.162Z,7.52
2022-11-24T07:26:07.355Z,7.55
2022-11-24T07:27:07.147Z,7.53
2022-11-24T07:28:07.152Z,7.55
2022-11-24T07:29:07.135Z,7.53
2022-11-24T07:30:07.122Z,7.55
2022-11-24T07:31:07.108Z,7.56
2022-11-24T07:32:07.154Z,7.59
2022-11-24T07:33:07.091Z,7.62
2022-11-24T07:34:07.092Z,7.66
2022-11-24T07:35:07.060Z,7.66
2022-11-24T07:36:07.054Z,7.69
2022-11-24T07:37:07.034Z,7.71
2022-11-24T07:38:07.047Z,7.69
2022-11-24T07:39:07.039Z,7.71
2022-11-24T07:40:07.012Z,7.72
2022-11-24T07:41:07.016Z,7.72
2022-11-24T07:42:07.001Z,7.74
2022-11-24T07:43:06.991Z,7.72
2022-11-24T07:44:06.973Z,7.74
2022-11-24T07:45:06.977Z,7.75
2022-11-24T07:46:07.003Z,7.75
2022-11-24T07:47:06.930Z,7.77
2022-11-24T07:48:06.938Z,7.77
2022-11-24T07:49:06.916Z,7.78
2022-11-24T07:50:06.931Z,7.77
2022-11-24T07:51:06.893Z,7.78
2022-11-24T07:52:06.887Z,7.78
2022-11-24T07:53:06.882Z,7.78
2022-11-24T07:54:06.863Z,7.77
2022-11-24T07:55:06.863Z,7.78
2022-11-24T07:56:06.883Z,7.75
2022-11-24T07:57:06.831Z,7.77
2022-11-24T07:58:06.837Z,7.78
2022-11-24T07:59:06.812Z,7.78
2022-11-24T08:00:06.803Z,7.79
2022-11-24T08:01:06.829Z,7.79
2022-11-24T08:02:06.833Z,7.81
2022-11-24T08:03:06.779Z,7.82
2022-11-24T08:04:06.825Z,7.84
2022-11-24T08:05:06.772Z,7.82
2022-11-24T08:07:06.868Z,7.84
2022-11-24T08:08:06.718Z,7.82
2022-11-24T08:09:06.700Z,7.82
2022-11-24T08:10:06.709Z,7.81
2022-11-24T08:11:06.743Z,7.82
2022-11-24T08:12:06.724Z,7.82
2022-11-24T08:13:06.663Z,7.81
2022-11-24T08:14:06.744Z,7.82
2022-11-24T08:15:10.969Z,7.79
2022-11-24T08:16:06.686Z,7.78
2022-11-24T08:17:06.763Z,7.78
2022-11-24T08:18:06.644Z,7.75
2022-11-24T08:19:06.596Z,7.74
2022-11-24T08:20:06.608Z,7.72
2022-11-24T08:21:06.606Z,7.72
2022-11-24T08:22:06.588Z,7.71
2022-11-24T08:23:06.569Z,7.69
2022-11-24T08:24:06.560Z,7.71
2022-11-24T08:25:06.550Z,7.71
2022-11-24T08:26:06.534Z,7.71
2022-11-24T08:27:06.546Z,7.72
2022-11-24T08:28:06.505Z,7.71
2022-11-24T08:29:06.505Z,7.74
2022-11-24T08:30:06.494Z,7.74
2022-11-24T08:31:06.471Z,7.75
2022-11-24T08:32:06.564Z,7.78
2022-11-24T08:33:06.446Z,7.72
2022-11-24T08:34:06.462Z,7.77
2022-11-24T08:35:14.063Z,7.74
2022-11-24T08:36:06.434Z,7.75
2022-11-24T08:37:06.419Z,7.75
2022-11-24T08:38:06.502Z,7.74
2022-11-24T08:39:06.398Z,7.72
2022-11-24T08:40:06.395Z,7.74
2022-11-24T08:41:06.421Z,7.72
2022-11-24T08:42:06.376Z,7.72
2022-11-24T08:43:06.353Z,7.75
2022-11-24T08:44:06.362Z,7.71
2022-11-24T08:45:20.009Z,7.72
2022-11-24T08:46:06.489Z,7.69
2022-11-24T08:47:06.304Z,7.71
2022-11-24T08:48:06.345Z,7.69
2022-11-24T08:49:06.295Z,7.74
2022-11-24T08:50:06.298Z,7.69
2022-11-24T08:51:06.269Z,7.69
2022-11-24T08:52:06.265Z,7.69
2022-11-24T08:53:06.262Z,7.72
2022-11-24T08:54:06.272Z,7.72
2022-11-24T08:55:06.224Z,7.71
2022-11-24T08:56:06.249Z,7.74
2022-11-24T08:57:06.212Z,7.75
2022-11-24T08:58:13.051Z,7.78
2022-11-24T08:59:09.756Z,7.81
2022-11-24T09:00:06.317Z,7.84
2022-11-24T09:01:06.239Z,7.85
2022-11-24T09:02:06.281Z,7.93
2022-11-24T09:03:06.141Z,7.96
2022-11-24T09:04:06.243Z,7.96
2022-11-24T09:05:22.499Z,7.96
2022-11-24T09:06:06.131Z,7.93
2022-11-24T09:07:06.102Z,7.93
2022-11-24T09:08:06.099Z,7.97
2022-11-24T09:09:06.083Z,7.93
2022-11-24T09:10:06.096Z,7.96
2022-11-24T09:11:06.055Z,7.92
2022-11-24T09:12:09.963Z,7.93
2022-11-24T09:13:06.044Z,7.96
2022-11-24T09:14:06.036Z,7.96
2022-11-24T09:15:06.020Z,7.96
2022-11-24T09:16:06.020Z,7.99
2022-11-24T09:17:06.073Z,7.99
2022-11-24T09:18:05.997Z,8.00
2022-11-24T09:19:05.974Z,7.99
2022-11-24T09:20:05.965Z,8.02
2022-11-24T09:21:05.968Z,8.02
2022-11-24T09:22:05.958Z,8.04
2022-11-24T09:23:05.939Z,8.02
2022-11-24T09:24:05.940Z,8.04
2022-11-24T09:25:05.927Z,8.02
2022-11-24T09:26:05.920Z,8.07
2022-11-24T09:27:05.890Z,8.04
2022-11-24T09:28:05.920Z,8.04
2022-11-24T09:29:05.874Z,8.07
2022-11-24T09:30:06.263Z,8.07
2022-11-24T09:31:05.932Z,8.08
2022-11-24T09:32:07.141Z,8.04
2022-11-24T09:33:05.827Z,8.02
2022-11-24T09:34:05.831Z,8.00
2022-11-24T09:35:05.847Z,7.96
2022-11-24T09:36:05.806Z,7.96
2022-11-24T09:37:05.868Z,7.96
2022-11-24T09:38:05.809Z,7.93
2022-11-24T09:39:05.841Z,7.93
2022-11-24T09:40:05.768Z,7.90
2022-11-24T09:41:05.772Z,7.90
2022-11-24T09:42:05.748Z,7.90
2022-11-24T09:43:05.791Z,7.90
2022-11-24T09:44:05.717Z,7.90
2022-11-24T09:45:05.718Z,7.92
2022-11-24T09:46:06.472Z,7.90
2022-11-24T09:47:05.715Z,7.89
2022-11-24T09:48:05.681Z,7.92
2022-11-24T09:49:05.718Z,7.93
2022-11-24T09:50:05.692Z,7.94
2022-11-24T09:51:05.688Z,7.94
2022-11-24T09:52:05.630Z,7.93
2022-11-24T09:53:05.623Z,7.96
2022-11-24T09:54:05.643Z,7.99
2022-11-24T09:55:05.602Z,7.99
2022-11-24T09:56:05.617Z,7.99
2022-11-24T09:57:05.585Z,8.00
2022-11-24T09:58:05.605Z,8.02
2022-11-24T09:59:05.559Z,8.04
2022-11-24T10:00:05.559Z,8.12
2022-11-24T10:01:05.621Z,8.18
2022-11-24T10:02:05.603Z,8.28
2022-11-24T10:03:05.579Z,8.37
2022-11-24T10:04:06.704Z,8.42
2022-11-24T10:05:05.527Z,8.50
2022-11-24T10:06:05.508Z,8.53
2022-11-24T10:07:05.486Z,8.53
2022-11-24T10:08:05.512Z,8.53
2022-11-24T10:09:05.465Z,8.54
2022-11-24T10:10:05.448Z,8.48
2022-11-24T10:11:05.448Z,8.51
2022-11-24T10:12:05.439Z,8.55
2022-11-24T10:13:05.401Z,8.57
2022-11-24T10:14:05.412Z,8.62
2022-11-24T10:15:05.420Z,8.65
2022-11-24T10:16:05.435Z,8.68
2022-11-24T10:17:05.378Z,8.69
2022-11-24T10:18:05.381Z,8.71
2022-11-24T10:19:05.350Z,8.73
2022-11-24T10:20:05.338Z,8.72
2022-11-24T10:21:05.321Z,8.72
2022-11-24T10:22:05.347Z,8.69
2022-11-24T10:23:05.343Z,8.69
2022-11-24T10:24:05.305Z,8.68
2022-11-24T10:25:05.281Z,8.68
2022-11-24T10:26:05.296Z,8.69
2022-11-24T10:27:05.268Z,8.71
2022-11-24T10:28:05.279Z,8.71
2022-11-24T10:29:05.253Z,8.73
2022-11-24T10:30:05.272Z,8.75
2022-11-24T10:31:05.298Z,8.75
2022-11-24T10:32:05.225Z,8.78
2022-11-24T10:33:05.277Z,8.78
2022-11-24T10:34:05.198Z,8.81
2022-11-24T10:35:05.191Z,8.79
2022-11-24T10:36:05.179Z,8.79
2022-11-24T10:37:05.192Z,8.76
2022-11-24T10:38:05.182Z,8.78
2022-11-24T10:39:05.148Z,8.76
2022-11-24T10:40:05.135Z,8.73
2022-11-24T10:41:05.106Z,8.73
2022-11-24T10:42:05.131Z,8.72
2022-11-24T10:43:05.097Z,8.72
2022-11-24T10:44:05.114Z,8.71
2022-11-24T10:45:05.083Z,8.71
2022-11-24T10:46:05.124Z,8.68
2022-11-24T10:47:05.071Z,8.69
2022-11-24T10:48:05.085Z,8.72
2022-11-24T10:49:05.057Z,8.73
2022-11-24T10:50:05.075Z,8.73
2022-11-24T10:51:05.034Z,8.72
2022-11-24T10:52:05.013Z,8.72
2022-11-24T10:53:05.019Z,8.75
2022-11-24T10:54:05.054Z,8.71
2022-11-24T10:55:04.992Z,8.71
2022-11-24T10:56:05.043Z,8.68
2022-11-24T10:57:04.944Z,8.68
2022-11-24T10:58:04.960Z,8.62
2022-11-24T10:59:04.935Z,8.63
2022-11-24T11:00:05.089Z,8.65
2022-11-24T11:01:04.950Z,8.66
2022-11-24T11:02:05.009Z,8.66
2022-11-24T11:03:04.944Z,8.68
2022-11-24T11:04:04.884Z,8.66
2022-11-24T11:05:04.915Z,8.68
2022-11-24T11:06:04.879Z,8.65
2022-11-24T11:07:04.908Z,8.63
2022-11-24T11:08:05.728Z,8.60
2022-11-24T11:09:04.850Z,8.66
2022-11-24T11:10:04.823Z,8.68
2022-11-24T11:11:04.835Z,8.71
2022-11-24T11:12:27.724Z,8.71
2022-11-24T11:13:04.780Z,8.73
2022-11-24T11:14:05.071Z,8.75
2022-11-24T11:15:04.766Z,8.79
2022-11-24T11:16:04.821Z,8.78
2022-11-24T11:17:04.752Z,8.78
2022-11-24T11:18:04.761Z,8.79
2022-11-24T11:19:20.181Z,8.83
2022-11-24T11:20:05.057Z,8.78
2022-11-24T11:21:04.695Z,8.81
2022-11-24T11:22:04.714Z,8.78
2022-11-24T11:23:04.710Z,8.83
2022-11-24T11:24:04.674Z,8.86
2022-11-24T11:25:04.668Z,8.93
2022-11-24T11:26:04.673Z,8.91
2022-11-24T11:27:04.628Z,8.94
2022-11-24T11:28:09.130Z,8.97
2022-11-24T11:31:16.407Z,9.05
2022-11-24T11:34:07.361Z,9.04
2022-11-24T11:35:04.583Z,9.04
2022-11-24T11:36:04.566Z,8.97
2022-11-24T11:37:04.533Z,9.02
2022-11-24T11:38:04.535Z,8.99
2022-11-24T11:39:04.531Z,8.97
2022-11-24T11:40:04.514Z,8.88
2022-11-24T11:41:04.526Z,8.83
2022-11-24T11:42:04.492Z,8.81
2022-11-24T11:43:04.552Z,8.79
2022-11-24T11:44:04.471Z,8.76
2022-11-24T11:45:04.479Z,8.73
2022-11-24T11:46:04.569Z,8.75
2022-11-24T11:47:04.533Z,8.71
2022-11-24T11:48:04.468Z,8.69
2022-11-24T11:49:04.422Z,8.71
2022-11-24T11:50:04.437Z,8.71
2022-11-24T11:51:22.723Z,8.73
2022-11-24T11:52:04.378Z,8.72
2022-11-24T11:53:04.380Z,8.71
2022-11-24T11:54:04.476Z,8.72
2022-11-24T11:55:04.347Z,8.73
2022-11-24T11:56:04.337Z,8.71
2022-11-24T11:57:04.339Z,8.75
2022-11-24T11:58:04.308Z,8.73
2022-11-24T11:59:04.327Z,8.76
2022-11-24T12:00:04.331Z,8.76
2022-11-24T12:01:04.338Z,8.76
2022-11-24T12:02:04.261Z,8.75
2022-11-24T12:03:04.361Z,8.75
2022-11-24T12:04:04.414Z,8.75
2022-11-24T12:05:04.264Z,8.75
2022-11-24T12:06:05.119Z,8.73
2022-11-24T12:07:04.314Z,8.71
2022-11-24T12:08:09.586Z,8.73
2022-11-24T12:09:19.948Z,8.76
2022-11-24T12:10:04.210Z,8.73
2022-11-24T12:11:04.190Z,8.75
2022-11-24T12:12:04.180Z,8.73
2022-11-24T12:13:05.011Z,8.79
2022-11-24T12:14:04.164Z,8.79
2022-11-24T12:15:10.253Z,8.81
2022-11-24T12:16:04.256Z,8.84
2022-11-24T12:17:04.144Z,8.90
2022-11-24T12:18:04.117Z,9.02
2022-11-24T12:19:04.100Z,9.02
2022-11-24T12:20:04.095Z,9.09
2022-11-24T12:21:04.100Z,9.12
2022-11-24T12:22:04.073Z,9.13
2022-11-24T12:23:04.082Z,9.09
2022-11-24T12:24:04.056Z,9.09
2022-11-24T12:25:04.104Z,9.12
2022-11-24T12:26:04.045Z,9.12
2022-11-24T12:27:04.037Z,9.10
2022-11-24T12:28:04.007Z,9.09
2022-11-24T12:29:04.041Z,9.06
2022-11-24T12:30:03.995Z,9.12
2022-11-24T12:31:04.124Z,9.15
2022-11-24T12:32:03.965Z,9.15
2022-11-24T12:33:03.960Z,9.16
2022-11-24T12:34:03.930Z,9.16
2022-11-24T12:35:03.933Z,9.15
2022-11-24T12:36:03.917Z,9.10
2022-11-24T12:37:03.930Z,9.09
2022-11-24T12:38:03.895Z,9.05
2022-11-24T12:39:03.899Z,9.02
2022-11-24T12:40:03.890Z,9.01
2022-11-24T12:41:33.499Z,9.02
2022-11-24T12:42:03.877Z,9.01
2022-11-24T12:43:03.887Z,9.02
2022-11-24T12:44:03.827Z,8.99
2022-11-24T12:45:03.872Z,8.97
2022-11-24T12:46:03.884Z,8.94
2022-11-24T12:47:03.917Z,8.91
2022-11-24T12:48:03.819Z,8.91
2022-11-24T12:49:03.844Z,8.90
2022-11-24T12:50:03.779Z,8.90
2022-11-24T12:51:03.785Z,8.87
2022-11-24T12:52:03.769Z,8.86
2022-11-24T12:53:03.751Z,8.86
2022-11-24T12:54:03.728Z,8.86
2022-11-24T12:55:03.940Z,8.88
2022-11-24T12:56:03.714Z,8.87
2022-11-24T12:57:03.717Z,8.84
2022-11-24T12:58:07.814Z,8.84
2022-11-24T12:59:03.683Z,8.84
2022-11-24T13:00:03.657Z,8.86
2022-11-24T13:01:03.690Z,8.84
2022-11-24T13:02:03.758Z,8.87
2022-11-24T13:03:03.882Z,8.91
2022-11-24T13:04:03.626Z,8.97
2022-11-24T13:05:03.629Z,9.02
2022-11-24T13:06:03.627Z,9.12
2022-11-24T13:07:03.616Z,9.16
2022-11-24T13:08:03.570Z,9.24
2022-11-24T13:09:03.588Z,9.28
2022-11-24T13:10:03.550Z,9.40
2022-11-24T13:11:03.546Z,9.50
2022-11-24T13:12:03.805Z,9.53
2022-11-24T13:13:03.524Z,9.64
2022-11-24T13:14:03.516Z,9.67
2022-11-24T13:15:03.533Z,9.70
2022-11-24T13:17:28.601Z,9.73
2022-11-24T13:24:18.935Z,9.71
2022-11-24T13:24:24.931Z,9.57
2022-11-24T13:25:24.881Z,9.49
2022-11-24T13:26:24.877Z,9.49
2022-11-24T13:27:24.868Z,9.45
2022-11-24T13:28:53.987Z,9.38
2022-11-24T13:29:25.626Z,9.34
2022-11-24T13:30:24.907Z,9.30
2022-11-24T13:31:24.969Z,9.28
2022-11-24T13:32:25.156Z,9.28
2022-11-24T13:33:27.080Z,9.24
2022-11-24T13:34:24.819Z,9.27
2022-11-24T13:35:24.768Z,9.24
2022-11-24T13:36:25.519Z,9.21
2022-11-24T13:37:26.577Z,9.18
2022-11-24T13:38:24.863Z,9.18
2022-11-24T13:39:24.716Z,9.15
2022-11-24T13:40:24.949Z,9.10
2022-11-24T13:41:28.530Z,9.12
2022-11-24T13:42:41.734Z,9.12
2022-11-24T13:43:24.710Z,9.13
2022-11-24T13:44:24.661Z,9.16
2022-11-24T13:45:24.703Z,9.23
2022-11-24T13:46:24.720Z,9.27
2022-11-24T13:47:24.695Z,9.28
2022-11-24T13:48:24.649Z,9.24
2022-11-24T13:49:24.644Z,9.23
2022-11-24T13:50:24.617Z,9.23
2022-11-24T13:51:24.593Z,9.20
2022-11-24T13:52:24.589Z,9.16
2022-11-24T13:53:24.628Z,9.13
2022-11-24T13:54:24.561Z,9.15
2022-11-24T13:55:24.556Z,9.15
2022-11-24T13:56:24.554Z,9.15
2022-11-24T13:57:24.550Z,9.18
2022-11-24T13:58:24.510Z,9.13
2022-11-24T13:59:24.524Z,9.12
2022-11-24T14:00:24.505Z,9.05
2022-11-24T14:01:24.707Z,9.06
2022-11-24T14:02:24.506Z,9.06
2022-11-24T14:03:24.523Z,9.09
2022-11-24T14:04:32.862Z,9.06
2022-11-24T14:05:24.484Z,9.09
2022-11-24T14:06:24.472Z,9.09
2022-11-24T14:07:24.505Z,9.05
2022-11-24T14:08:24.423Z,9.02
2022-11-24T14:09:24.430Z,9.04
2022-11-24T14:10:24.437Z,9.02
2022-11-24T14:11:24.436Z,9.04
2022-11-24T14:12:24.387Z,9.05
2022-11-24T14:13:24.378Z,8.97
2022-11-24T14:14:24.348Z,8.94
2022-11-24T14:15:24.349Z,8.90
2022-11-24T14:16:24.391Z,8.93
2022-11-24T14:17:24.341Z,8.93
2022-11-24T14:18:24.298Z,8.88
2022-11-24T14:19:27.856Z,8.90
2022-11-24T14:20:24.342Z,8.88
2022-11-24T14:21:24.300Z,8.86
2022-11-24T14:22:24.286Z,8.86
2022-11-24T14:23:24.258Z,8.83
2022-11-24T14:24:24.270Z,8.79
2022-11-24T14:25:24.290Z,8.78
2022-11-24T14:26:24.240Z,8.83
2022-11-24T14:27:24.215Z,8.79
2022-11-24T14:28:24.236Z,8.78
2022-11-24T14:29:24.217Z,8.75
2022-11-24T14:30:24.192Z,8.79
2022-11-24T14:31:24.256Z,8.73
2022-11-24T14:32:24.168Z,8.72
2022-11-24T14:33:24.198Z,8.66
2022-11-24T14:34:24.156Z,8.57
2022-11-24T14:35:24.206Z,8.57
2022-11-24T14:36:24.134Z,8.54
2022-11-24T14:37:24.130Z,8.48
2022-11-24T14:38:24.090Z,8.42
2022-11-24T14:39:24.109Z,8.40
2022-11-24T14:40:24.102Z,8.33
2022-11-24T14:41:24.100Z,8.30
2022-11-24T14:42:24.060Z,8.26
2022-11-24T14:43:24.058Z,8.22
2022-11-24T14:44:24.095Z,8.20
2022-11-24T14:45:24.049Z,8.18
2022-11-24T14:46:24.072Z,8.18
2022-11-24T14:47:30.177Z,8.18
2022-11-24T14:48:24.009Z,8.15
2022-11-24T14:49:23.991Z,8.14
2022-11-24T14:50:24.013Z,8.12
2022-11-24T14:51:23.970Z,8.10
2022-11-24T14:52:23.953Z,8.10
2022-11-24T14:53:26.257Z,8.07
2022-11-24T14:54:23.949Z,8.11
2022-11-24T14:55:23.935Z,8.08
2022-11-24T14:56:23.907Z,8.02
2022-11-24T14:57:23.944Z,8.02
2022-11-24T14:58:23.906Z,7.99
2022-11-24T14:59:23.874Z,7.94
2022-11-24T15:00:23.872Z,7.93
2022-11-24T15:01:23.893Z,7.87
2022-11-24T15:02:23.963Z,7.84
2022-11-24T15:03:23.832Z,7.81
2022-11-24T15:04:54.522Z,7.79
2022-11-24T15:05:23.833Z,7.78
2022-11-24T15:06:23.795Z,7.75
2022-11-24T15:07:23.855Z,7.82
2022-11-24T15:08:23.805Z,7.81
2022-11-24T15:09:23.800Z,7.82
2022-11-24T15:10:26.654Z,7.78
2022-11-24T15:11:23.765Z,7.78
2022-11-24T15:12:23.724Z,7.79
2022-11-24T15:13:23.742Z,7.77
2022-11-24T15:14:23.732Z,7.77
2022-11-24T15:15:23.707Z,7.75
2022-11-24T15:16:23.782Z,7.71
2022-11-24T15:17:23.693Z,7.66
2022-11-24T15:18:23.694Z,7.60
2022-11-24T15:19:23.690Z,7.59
2022-11-24T15:20:23.660Z,7.56
2022-11-24T15:21:23.692Z,7.55
2022-11-24T15:22:23.653Z,7.53
2022-11-24T15:23:23.632Z,7.53
2022-11-24T15:24:23.659Z,7.49
2022-11-24T15:25:23.606Z,7.50
2022-11-24T15:26:28.871Z,7.50